sensor_id;sensor_type;location;lat;lon;timestamp;pressure;altitude;pressure_sealevel;temperature;humidity
8160;BME280;27404;52.398;9.646;2023-12-20T00:01:35;100461.00;;;5.21;100.00
8160;BME280;27404;52.398;9.646;2023-12-20T00:04:01;100456.59;;;5.13;100.00
8160;BME280;27404;52.398;9.646;2023-12-20T00:06:26;100457.41;;;5.07;100.00
8160;BME280;27404;52.398;9.646;2023-12-20T00:08:51;100456.16;;;5.03;100.00
8160;BME280;27404;52.398;9.646;2023-12-20T00:11:17;100470.53;;;5.03;100.00
8160;BME280;27404;52.398;9.646;2023-12-20T00:13:42;100475.72;;;4.98;100.00
8160;BME280;27404;52.398;9.646;2023-12-20T00:16:08;100468.84;;;4.96;100.00
8160;BME280;27404;52.398;9.646;2023-12-20T00:18:33;100474.88;;;4.91;100.00
8160;BME280;27404;52.398;9.646;2023-12-20T00:20:59;100480.66;;;4.81;100.00
8160;BME280;27404;52.398;9.646;2023-12-20T00:23:24;100482.56;;;4.87;100.00
8160;BME280;27404;52.398;9.646;2023-12-20T00:25:49;100475.63;;;4.78;100.00
8160;BME280;27404;52.398;9.646;2023-12-20T00:28:15;100476.44;;;4.72;100.00
8160;BME280;27404;52.398;9.646;2023-12-20T00:30:40;100482.31;;;4.76;100.00
8160;BME280;27404;52.398;9.646;2023-12-20T00:33:06;100483.75;;;4.71;100.00
8160;BME280;27404;52.398;9.646;2023-12-20T00:35:31;100493.31;;;4.67;100.00
8160;BME280;27404;52.398;9.646;2023-12-20T00:37:58;100492.25;;;4.68;100.00
8160;BME280;27404;52.398;9.646;2023-12-20T00:40:23;100481.19;;;4.63;100.00
8160;BME280;27404;52.398;9.646;2023-12-20T00:42:49;100480.56;;;4.61;100.00
8160;BME280;27404;52.398;9.646;2023-12-20T00:45:14;100487.47;;;4.64;100.00
8160;BME280;27404;52.398;9.646;2023-12-20T00:47:40;100488.25;;;4.57;100.00
8160;BME280;27404;52.398;9.646;2023-12-20T00:50:06;100488.66;;;4.54;100.00
8160;BME280;27404;52.398;9.646;2023-12-20T00:52:32;100481.34;;;4.55;100.00
8160;BME280;27404;52.398;9.646;2023-12-20T00:54:57;100489.44;;;4.48;100.00
8160;BME280;27404;52.398;9.646;2023-12-20T00:57:22;100490.03;;;4.43;100.00
8160;BME280;27404;52.398;9.646;2023-12-20T00:59:48;100478.97;;;4.38;100.00
8160;BME280;27404;52.398;9.646;2023-12-20T01:02:14;100487.94;;;4.39;100.00
8160;BME280;27404;52.398;9.646;2023-12-20T01:04:39;100476.88;;;4.40;100.00
8160;BME280;27404;52.398;9.646;2023-12-20T01:07:04;100488.75;;;4.39;100.00
8160;BME280;27404;52.398;9.646;2023-12-20T01:09:30;100488.97;;;4.38;100.00
8160;BME280;27404;52.398;9.646;2023-12-20T01:11:55;100483.56;;;4.38;100.00
8160;BME280;27404;52.398;9.646;2023-12-20T01:14:21;100485.66;;;4.42;100.00
8160;BME280;27404;52.398;9.646;2023-12-20T01:16:46;100484.22;;;4.47;100.00
8160;BME280;27404;52.398;9.646;2023-12-20T01:19:13;100476.94;;;4.47;100.00
8160;BME280;27404;52.398;9.646;2023-12-20T01:21:39;100482.38;;;4.47;100.00
8160;BME280;27404;52.398;9.646;2023-12-20T01:24:05;100479.84;;;4.45;100.00
8160;BME280;27404;52.398;9.646;2023-12-20T01:26:30;100481.75;;;4.52;100.00
8160;BME280;27404;52.398;9.646;2023-12-20T01:28:55;100492.00;;;4.56;100.00
8160;BME280;27404;52.398;9.646;2023-12-20T01:31:21;100495.53;;;4.57;100.00
8160;BME280;27404;52.398;9.646;2023-12-20T01:33:46;100493.22;;;4.54;100.00
8160;BME280;27404;52.398;9.646;2023-12-20T01:36:12;100494.09;;;4.61;100.00
8160;BME280;27404;52.398;9.646;2023-12-20T01:38:37;100498.69;;;4.61;100.00
8160;BME280;27404;52.398;9.646;2023-12-20T01:41:03;100496.81;;;4.61;100.00
8160;BME280;27404;52.398;9.646;2023-12-20T01:43:29;100494.22;;;4.46;100.00
8160;BME280;27404;52.398;9.646;2023-12-20T01:45:56;100499.72;;;4.31;100.00
8160;BME280;27404;52.398;9.646;2023-12-20T01:48:23;100494.28;;;4.24;100.00
8160;BME280;27404;52.398;9.646;2023-12-20T01:50:49;100494.53;;;4.29;100.00
8160;BME280;27404;52.398;9.646;2023-12-20T01:53:15;100500.34;;;4.26;100.00
8160;BME280;27404;52.398;9.646;2023-12-20T01:55:41;100504.84;;;4.19;100.00
8160;BME280;27404;52.398;9.646;2023-12-20T01:58:08;100500.97;;;4.28;100.00
8160;BME280;27404;52.398;9.646;2023-12-20T02:00:36;100496.34;;;4.22;100.00
8160;BME280;27404;52.398;9.646;2023-12-20T02:03:03;100504.94;;;4.26;100.00
8160;BME280;27404;52.398;9.646;2023-12-20T02:05:30;100500.38;;;4.33;100.00
8160;BME280;27404;52.398;9.646;2023-12-20T02:07:56;100501.41;;;4.32;100.00
8160;BME280;27404;52.398;9.646;2023-12-20T02:10:21;100495.78;;;4.27;100.00
8160;BME280;27404;52.398;9.646;2023-12-20T02:12:47;100494.50;;;4.23;100.00
8160;BME280;27404;52.398;9.646;2023-12-20T02:15:12;100479.94;;;4.24;100.00
8160;BME280;27404;52.398;9.646;2023-12-20T02:17:38;100475.72;;;4.21;100.00
8160;BME280;27404;52.398;9.646;2023-12-20T02:20:05;100470.47;;;4.13;100.00
8160;BME280;27404;52.398;9.646;2023-12-20T02:22:31;100461.13;;;4.15;100.00
8160;BME280;27404;52.398;9.646;2023-12-20T02:24:57;100452.41;;;4.20;100.00
8160;BME280;27404;52.398;9.646;2023-12-20T02:27:23;100464.72;;;4.23;100.00
8160;BME280;27404;52.398;9.646;2023-12-20T02:29:49;100464.47;;;4.18;100.00
8160;BME280;27404;52.398;9.646;2023-12-20T02:32:16;100465.69;;;4.15;100.00
8160;BME280;27404;52.398;9.646;2023-12-20T02:34:42;100468.13;;;4.03;100.00
8160;BME280;27404;52.398;9.646;2023-12-20T02:37:08;100453.72;;;3.96;100.00
8160;BME280;27404;52.398;9.646;2023-12-20T02:39:33;100446.59;;;3.88;100.00
8160;BME280;27404;52.398;9.646;2023-12-20T02:41:59;100461.16;;;3.87;100.00
8160;BME280;27404;52.398;9.646;2023-12-20T02:44:31;100461.53;;;3.84;100.00
8160;BME280;27404;52.398;9.646;2023-12-20T02:46:56;100458.81;;;3.84;100.00
8160;BME280;27404;52.398;9.646;2023-12-20T02:49:21;100466.22;;;3.75;100.00
8160;BME280;27404;52.398;9.646;2023-12-20T02:51:47;100462.63;;;3.68;100.00
8160;BME280;27404;52.398;9.646;2023-12-20T02:54:12;100467.81;;;3.63;100.00
8160;BME280;27404;52.398;9.646;2023-12-20T02:56:38;100461.16;;;3.65;100.00
8160;BME280;27404;52.398;9.646;2023-12-20T02:59:03;100457.22;;;3.68;100.00
8160;BME280;27404;52.398;9.646;2023-12-20T03:01:31;100461.19;;;3.72;100.00
8160;BME280;27404;52.398;9.646;2023-12-20T03:03:57;100441.81;;;3.62;100.00
8160;BME280;27404;52.398;9.646;2023-12-20T03:06:23;100445.31;;;3.62;100.00
8160;BME280;27404;52.398;9.646;2023-12-20T03:08:48;100444.28;;;3.63;100.00
8160;BME280;27404;52.398;9.646;2023-12-20T03:11:13;100437.03;;;3.64;100.00
8160;BME280;27404;52.398;9.646;2023-12-20T03:13:39;100436.19;;;3.63;100.00
8160;BME280;27404;52.398;9.646;2023-12-20T03:16:09;100436.31;;;3.55;100.00
8160;BME280;27404;52.398;9.646;2023-12-20T03:18:34;100429.25;;;3.54;100.00
8160;BME280;27404;52.398;9.646;2023-12-20T03:21:00;100422.69;;;3.41;100.00
8160;BME280;27404;52.398;9.646;2023-12-20T03:23:25;100416.06;;;3.44;100.00
8160;BME280;27404;52.398;9.646;2023-12-20T03:25:52;100414.97;;;3.38;100.00
8160;BME280;27404;52.398;9.646;2023-12-20T03:28:18;100414.97;;;3.38;100.00
8160;BME280;27404;52.398;9.646;2023-12-20T03:30:43;100397.97;;;3.45;100.00
8160;BME280;27404;52.398;9.646;2023-12-20T03:33:09;100399.09;;;3.50;100.00
8160;BME280;27404;52.398;9.646;2023-12-20T03:35:34;100389.03;;;3.44;100.00
8160;BME280;27404;52.398;9.646;2023-12-20T03:38:00;100394.19;;;3.39;100.00
8160;BME280;27404;52.398;9.646;2023-12-20T03:40:25;100395.78;;;3.33;100.00
8160;BME280;27404;52.398;9.646;2023-12-20T03:42:51;100392.53;;;3.38;100.00
8160;BME280;27404;52.398;9.646;2023-12-20T03:45:16;100399.41;;;3.40;100.00
8160;BME280;27404;52.398;9.646;2023-12-20T03:47:42;100389.03;;;3.44;100.00
8160;BME280;27404;52.398;9.646;2023-12-20T03:50:07;100385.97;;;3.47;100.00
8160;BME280;27404;52.398;9.646;2023-12-20T03:52:33;100384.97;;;3.55;100.00
8160;BME280;27404;52.398;9.646;2023-12-20T03:54:58;100370.00;;;3.52;100.00
8160;BME280;27404;52.398;9.646;2023-12-20T03:57:24;100371.84;;;3.52;100.00
8160;BME280;27404;52.398;9.646;2023-12-20T03:59:49;100373.13;;;3.56;100.00
8160;BME280;27404;52.398;9.646;2023-12-20T04:02:14;100378.78;;;3.61;100.00
8160;BME280;27404;52.398;9.646;2023-12-20T04:04:40;100380.50;;;3.69;100.00
8160;BME280;27404;52.398;9.646;2023-12-20T04:07:07;100382.97;;;3.64;100.00
8160;BME280;27404;52.398;9.646;2023-12-20T04:09:32;100379.41;;;3.63;100.00
8160;BME280;27404;52.398;9.646;2023-12-20T04:11:58;100376.69;;;3.57;100.00
8160;BME280;27404;52.398;9.646;2023-12-20T04:14:23;100379.03;;;3.66;100.00
8160;BME280;27404;52.398;9.646;2023-12-20T04:16:50;100374.66;;;3.65;100.00
8160;BME280;27404;52.398;9.646;2023-12-20T04:19:15;100370.72;;;3.68;100.00
8160;BME280;27404;52.398;9.646;2023-12-20T04:21:41;100384.03;;;3.69;100.00
8160;BME280;27404;52.398;9.646;2023-12-20T04:24:06;100379.81;;;3.60;100.00
8160;BME280;27404;52.398;9.646;2023-12-20T04:26:32;100377.75;;;3.62;100.00
8160;BME280;27404;52.398;9.646;2023-12-20T04:28:57;100382.63;;;3.74;100.00
8160;BME280;27404;52.398;9.646;2023-12-20T04:31:23;100371.19;;;3.78;100.00
8160;BME280;27404;52.398;9.646;2023-12-20T04:33:49;100362.69;;;3.81;100.00
8160;BME280;27404;52.398;9.646;2023-12-20T04:36:14;100362.16;;;3.93;100.00
8160;BME280;27404;52.398;9.646;2023-12-20T04:38:39;100356.56;;;3.94;100.00
8160;BME280;27404;52.398;9.646;2023-12-20T04:41:05;100347.84;;;3.99;100.00
8160;BME280;27404;52.398;9.646;2023-12-20T04:43:30;100344.91;;;4.00;100.00
8160;BME280;27404;52.398;9.646;2023-12-20T04:45:56;100340.50;;;3.93;100.00
8160;BME280;27404;52.398;9.646;2023-12-20T04:48:21;100351.56;;;3.98;100.00
8160;BME280;27404;52.398;9.646;2023-12-20T04:50:47;100339.09;;;3.97;100.00
8160;BME280;27404;52.398;9.646;2023-12-20T04:53:12;100348.25;;;4.03;100.00
8160;BME280;27404;52.398;9.646;2023-12-20T04:55:37;100350.53;;;3.99;100.00
8160;BME280;27404;52.398;9.646;2023-12-20T04:58:04;100353.47;;;4.04;100.00
8160;BME280;27404;52.398;9.646;2023-12-20T05:00:29;100347.44;;;4.02;100.00
8160;BME280;27404;52.398;9.646;2023-12-20T05:02:55;100355.56;;;4.09;100.00
8160;BME280;27404;52.398;9.646;2023-12-20T05:05:20;100342.91;;;4.09;100.00
8160;BME280;27404;52.398;9.646;2023-12-20T05:07:46;100344.59;;;4.17;100.00
8160;BME280;27404;52.398;9.646;2023-12-20T05:10:11;100345.44;;;4.18;100.00
8160;BME280;27404;52.398;9.646;2023-12-20T05:12:37;100348.16;;;4.18;100.00
8160;BME280;27404;52.398;9.646;2023-12-20T05:15:03;100356.28;;;4.24;100.00
8160;BME280;27404;52.398;9.646;2023-12-20T05:17:28;100346.94;;;4.27;100.00
8160;BME280;27404;52.398;9.646;2023-12-20T05:19:54;100360.06;;;4.30;100.00
8160;BME280;27404;52.398;9.646;2023-12-20T05:22:19;100355.72;;;4.36;100.00
8160;BME280;27404;52.398;9.646;2023-12-20T05:24:45;100358.03;;;4.45;100.00
8160;BME280;27404;52.398;9.646;2023-12-20T05:27:10;100348.81;;;4.33;100.00
8160;BME280;27404;52.398;9.646;2023-12-20T05:29:36;100346.34;;;4.38;100.00
8160;BME280;27404;52.398;9.646;2023-12-20T05:32:02;100344.91;;;4.36;100.00
8160;BME280;27404;52.398;9.646;2023-12-20T05:34:30;100350.50;;;4.34;100.00
8160;BME280;27404;52.398;9.646;2023-12-20T05:36:55;100345.53;;;4.38;100.00
8160;BME280;27404;52.398;9.646;2023-12-20T05:39:21;100340.53;;;4.35;100.00
8160;BME280;27404;52.398;9.646;2023-12-20T05:41:47;100347.78;;;4.34;100.00
8160;BME280;27404;52.398;9.646;2023-12-20T05:44:13;100339.91;;;4.39;100.00
8160;BME280;27404;52.398;9.646;2023-12-20T05:46:38;100346.78;;;4.42;100.00
8160;BME280;27404;52.398;9.646;2023-12-20T05:49:05;100345.53;;;4.44;100.00
8160;BME280;27404;52.398;9.646;2023-12-20T05:51:30;100349.28;;;4.43;100.00
8160;BME280;27404;52.398;9.646;2023-12-20T05:53:56;100346.41;;;4.45;100.00
8160;BME280;27404;52.398;9.646;2023-12-20T05:56:21;100342.19;;;4.42;100.00
8160;BME280;27404;52.398;9.646;2023-12-20T05:58:47;100353.25;;;4.41;100.00
8160;BME280;27404;52.398;9.646;2023-12-20T06:01:14;100341.56;;;4.40;100.00
8160;BME280;27404;52.398;9.646;2023-12-20T06:03:43;100350.31;;;4.42;100.00
8160;BME280;27404;52.398;9.646;2023-12-20T06:06:09;100343.84;;;4.37;100.00
8160;BME280;27404;52.398;9.646;2023-12-20T06:08:34;100350.72;;;4.39;100.00
8160;BME280;27404;52.398;9.646;2023-12-20T06:11:00;100332.59;;;4.33;100.00
8160;BME280;27404;52.398;9.646;2023-12-20T06:13:25;100346.31;;;4.25;100.00
8160;BME280;27404;52.398;9.646;2023-12-20T06:15:52;100348.56;;;4.21;100.00
8160;BME280;27404;52.398;9.646;2023-12-20T06:18:17;100343.38;;;4.20;100.00
8160;BME280;27404;52.398;9.646;2023-12-20T06:20:43;100345.06;;;4.27;100.00
8160;BME280;27404;52.398;9.646;2023-12-20T06:23:08;100340.91;;;4.32;100.00
8160;BME280;27404;52.398;9.646;2023-12-20T06:25:33;100350.72;;;4.33;100.00
8160;BME280;27404;52.398;9.646;2023-12-20T06:27:59;100352.78;;;4.30;100.00
8160;BME280;27404;52.398;9.646;2023-12-20T06:30:25;100344.66;;;4.30;100.00
8160;BME280;27404;52.398;9.646;2023-12-20T06:32:53;100343.00;;;4.29;100.00
8160;BME280;27404;52.398;9.646;2023-12-20T06:35:18;100340.91;;;4.32;100.00
8160;BME280;27404;52.398;9.646;2023-12-20T06:37:44;100341.97;;;4.37;100.00
8160;BME280;27404;52.398;9.646;2023-12-20T06:40:10;100343.63;;;4.38;100.00
8160;BME280;27404;52.398;9.646;2023-12-20T06:42:36;100342.59;;;4.39;100.00
8160;BME280;27404;52.398;9.646;2023-12-20T06:45:02;100332.22;;;4.43;100.00
8160;BME280;27404;52.398;9.646;2023-12-20T06:47:27;100337.81;;;4.35;100.00
8160;BME280;27404;52.398;9.646;2023-12-20T06:49:52;100347.59;;;4.29;100.00
8160;BME280;27404;52.398;9.646;2023-12-20T06:52:18;100338.84;;;4.27;100.00
8160;BME280;27404;52.398;9.646;2023-12-20T06:54:43;100341.72;;;4.19;100.00
8160;BME280;27404;52.398;9.646;2023-12-20T06:57:09;100337.13;;;4.19;100.00
8160;BME280;27404;52.398;9.646;2023-12-20T06:59:39;100330.41;;;4.08;100.00
8160;BME280;27404;52.398;9.646;2023-12-20T07:02:05;100338.31;;;4.10;100.00
8160;BME280;27404;52.398;9.646;2023-12-20T07:04:31;100326.66;;;4.09;100.00
8160;BME280;27404;52.398;9.646;2023-12-20T07:06:56;100331.59;;;3.99;100.00
8160;BME280;27404;52.398;9.646;2023-12-20T07:09:22;100321.44;;;4.01;100.00
8160;BME280;27404;52.398;9.646;2023-12-20T07:11:48;100332.00;;;3.96;100.00
8160;BME280;27404;52.398;9.646;2023-12-20T07:14:14;100306.59;;;3.90;100.00
8160;BME280;27404;52.398;9.646;2023-12-20T07:16:39;100306.56;;;3.83;100.00
8160;BME280;27404;52.398;9.646;2023-12-20T07:19:05;100311.13;;;3.83;100.00
8160;BME280;27404;52.398;9.646;2023-12-20T07:21:31;100323.22;;;3.87;100.00
8160;BME280;27404;52.398;9.646;2023-12-20T07:23:57;100331.78;;;3.91;100.00
8160;BME280;27404;52.398;9.646;2023-12-20T07:26:22;100321.44;;;4.08;100.00
8160;BME280;27404;52.398;9.646;2023-12-20T07:28:49;100320.41;;;4.09;100.00
8160;BME280;27404;52.398;9.646;2023-12-20T07:31:15;100317.53;;;4.17;100.00
8160;BME280;27404;52.398;9.646;2023-12-20T07:33:41;100319.63;;;4.15;100.00
8160;BME280;27404;52.398;9.646;2023-12-20T07:36:07;100325.06;;;4.22;100.00
8160;BME280;27404;52.398;9.646;2023-12-20T07:38:33;100325.94;;;4.29;100.00
8160;BME280;27404;52.398;9.646;2023-12-20T07:40:58;100332.59;;;4.33;100.00
8160;BME280;27404;52.398;9.646;2023-12-20T07:43:24;100327.59;;;4.30;100.00
8160;BME280;27404;52.398;9.646;2023-12-20T07:45:49;100330.50;;;4.35;100.00
8160;BME280;27404;52.398;9.646;2023-12-20T07:48:14;100328.03;;;4.34;100.00
8160;BME280;27404;52.398;9.646;2023-12-20T07:50:41;100333.84;;;4.30;100.00
8160;BME280;27404;52.398;9.646;2023-12-20T07:53:07;100313.63;;;4.20;100.00
8160;BME280;27404;52.398;9.646;2023-12-20T07:55:33;100310.28;;;4.18;100.00
8160;BME280;27404;52.398;9.646;2023-12-20T07:57:59;100307.53;;;4.11;100.00
8160;BME280;27404;52.398;9.646;2023-12-20T08:00:25;100321.91;;;4.11;100.00
8160;BME280;27404;52.398;9.646;2023-12-20T08:02:50;100319.22;;;4.18;100.00
8160;BME280;27404;52.398;9.646;2023-12-20T08:05:16;100322.94;;;4.17;100.00
8160;BME280;27404;52.398;9.646;2023-12-20T08:07:41;100315.06;;;4.22;100.00
8160;BME280;27404;52.398;9.646;2023-12-20T08:10:07;100307.81;;;4.29;100.00
8160;BME280;27404;52.398;9.646;2023-12-20T08:12:32;100318.22;;;4.26;100.00
8160;BME280;27404;52.398;9.646;2023-12-20T08:14:59;100306.38;;;4.34;100.00
8160;BME280;27404;52.398;9.646;2023-12-20T08:17:24;100293.88;;;4.33;100.00
8160;BME280;27404;52.398;9.646;2023-12-20T08:19:50;100304.31;;;4.36;100.00
8160;BME280;27404;52.398;9.646;2023-12-20T08:22:16;100307.88;;;4.43;100.00
8160;BME280;27404;52.398;9.646;2023-12-20T08:24:41;100300.38;;;4.45;100.00
8160;BME280;27404;52.398;9.646;2023-12-20T08:27:06;100299.34;;;4.53;100.00
8160;BME280;27404;52.398;9.646;2023-12-20T08:29:32;100291.44;;;4.58;100.00
8160;BME280;27404;52.398;9.646;2023-12-20T08:31:57;100297.31;;;4.62;100.00
8160;BME280;27404;52.398;9.646;2023-12-20T08:34:23;100294.16;;;4.65;100.00
8160;BME280;27404;52.398;9.646;2023-12-20T08:36:50;100296.47;;;4.61;100.00
8160;BME280;27404;52.398;9.646;2023-12-20T08:39:16;100286.47;;;4.62;100.00
8160;BME280;27404;52.398;9.646;2023-12-20T08:41:41;100291.91;;;4.68;100.00
8160;BME280;27404;52.398;9.646;2023-12-20T08:44:07;100275.44;;;4.70;100.00
8160;BME280;27404;52.398;9.646;2023-12-20T08:46:32;100287.97;;;4.78;100.00
8160;BME280;27404;52.398;9.646;2023-12-20T08:48:58;100276.09;;;4.79;100.00
8160;BME280;27404;52.398;9.646;2023-12-20T08:51:23;100269.00;;;4.78;100.00
8160;BME280;27404;52.398;9.646;2023-12-20T08:53:51;100263.19;;;4.81;100.00
8160;BME280;27404;52.398;9.646;2023-12-20T08:56:16;100263.59;;;4.84;100.00
8160;BME280;27404;52.398;9.646;2023-12-20T08:58:44;100271.28;;;4.87;100.00
8160;BME280;27404;52.398;9.646;2023-12-20T09:01:09;100263.16;;;4.87;100.00
8160;BME280;27404;52.398;9.646;2023-12-20T09:03:35;100252.75;;;4.98;100.00
8160;BME280;27404;52.398;9.646;2023-12-20T09:06:01;100250.69;;;5.00;100.00
8160;BME280;27404;52.398;9.646;2023-12-20T09:08:26;100254.44;;;4.99;100.00
8160;BME280;27404;52.398;9.646;2023-12-20T09:10:52;100243.78;;;5.11;100.00
8160;BME280;27404;52.398;9.646;2023-12-20T09:13:17;100231.50;;;5.01;100.00
8160;BME280;27404;52.398;9.646;2023-12-20T09:15:43;100240.25;;;5.03;100.00
8160;BME280;27404;52.398;9.646;2023-12-20T09:18:08;100221.72;;;5.07;100.00
8160;BME280;27404;52.398;9.646;2023-12-20T09:20:34;100223.16;;;5.10;100.00
8160;BME280;27404;52.398;9.646;2023-12-20T09:22:59;100216.06;;;5.09;100.00
8160;BME280;27404;52.398;9.646;2023-12-20T09:25:25;100224.84;;;5.04;100.00
8160;BME280;27404;52.398;9.646;2023-12-20T09:27:51;100220.25;;;5.11;100.00
8160;BME280;27404;52.398;9.646;2023-12-20T09:30:18;100220.66;;;5.08;100.00
8160;BME280;27404;52.398;9.646;2023-12-20T09:32:43;100213.16;;;5.10;100.00
8160;BME280;27404;52.398;9.646;2023-12-20T09:35:08;100211.69;;;5.08;100.00
8160;BME280;27404;52.398;9.646;2023-12-20T09:37:34;100219.59;;;5.16;100.00
8160;BME280;27404;52.398;9.646;2023-12-20T09:39:59;100213.56;;;5.21;100.00
8160;BME280;27404;52.398;9.646;2023-12-20T09:42:38;100217.50;;;5.31;100.00
8160;BME280;27404;52.398;9.646;2023-12-20T09:45:08;100217.31;;;5.26;100.00
8160;BME280;27404;52.398;9.646;2023-12-20T09:47:35;100212.47;;;5.35;100.00
8160;BME280;27404;52.398;9.646;2023-12-20T09:50:02;100208.31;;;5.39;100.00
8160;BME280;27404;52.398;9.646;2023-12-20T09:52:28;100206.19;;;5.55;100.00
8160;BME280;27404;52.398;9.646;2023-12-20T09:54:54;100208.91;;;5.61;100.00
8160;BME280;27404;52.398;9.646;2023-12-20T09:57:21;100192.41;;;5.63;100.00
8160;BME280;27404;52.398;9.646;2023-12-20T09:59:46;100190.16;;;5.53;100.00
8160;BME280;27404;52.398;9.646;2023-12-20T10:02:13;100180.53;;;5.57;100.00
8160;BME280;27404;52.398;9.646;2023-12-20T10:04:46;100181.31;;;5.71;100.00
8160;BME280;27404;52.398;9.646;2023-12-20T10:07:15;100178.56;;;5.78;100.00
8160;BME280;27404;52.398;9.646;2023-12-20T10:09:41;100190.69;;;5.75;100.00
8160;BME280;27404;52.398;9.646;2023-12-20T10:12:07;100188.19;;;5.74;100.00
8160;BME280;27404;52.398;9.646;2023-12-20T10:14:33;100201.31;;;5.77;100.00
8160;BME280;27404;52.398;9.646;2023-12-20T10:17:03;100180.28;;;5.72;100.00
8160;BME280;27404;52.398;9.646;2023-12-20T10:19:28;100185.88;;;5.77;100.00
8160;BME280;27404;52.398;9.646;2023-12-20T10:21:54;100189.66;;;5.76;100.00
8160;BME280;27404;52.398;9.646;2023-12-20T10:24:20;100177.88;;;5.89;100.00
8160;BME280;27404;52.398;9.646;2023-12-20T10:26:46;100173.56;;;5.75;100.00
8160;BME280;27404;52.398;9.646;2023-12-20T10:29:11;100178.13;;;5.81;100.00
8160;BME280;27404;52.398;9.646;2023-12-20T10:31:37;100165.44;;;5.75;100.00
8160;BME280;27404;52.398;9.646;2023-12-20T10:34:04;100164.63;;;5.74;100.00
8160;BME280;27404;52.398;9.646;2023-12-20T10:36:31;100179.00;;;5.75;100.00
8160;BME280;27404;52.398;9.646;2023-12-20T10:38:57;100170.66;;;5.70;100.00
8160;BME280;27404;52.398;9.646;2023-12-20T10:41:32;100186.50;;;5.73;100.00
8160;BME280;27404;52.398;9.646;2023-12-20T10:44:04;100173.38;;;5.70;100.00
8160;BME280;27404;52.398;9.646;2023-12-20T10:46:33;100179.47;;;5.65;100.00
8160;BME280;27404;52.398;9.646;2023-12-20T10:49:02;100186.31;;;5.68;100.00
8160;BME280;27404;52.398;9.646;2023-12-20T10:51:28;100183.78;;;5.80;100.00
8160;BME280;27404;52.398;9.646;2023-12-20T10:53:55;100180.84;;;5.81;100.00
8160;BME280;27404;52.398;9.646;2023-12-20T10:56:21;100183.75;;;5.93;100.00
8160;BME280;27404;52.398;9.646;2023-12-20T10:58:49;100168.91;;;5.96;100.00
8160;BME280;27404;52.398;9.646;2023-12-20T11:01:15;100182.88;;;5.92;100.00
8160;BME280;27404;52.398;9.646;2023-12-20T11:03:48;100173.09;;;5.91;100.00
8160;BME280;27404;52.398;9.646;2023-12-20T11:11:51;100167.53;;;5.73;100.00
8160;BME280;27404;52.398;9.646;2023-12-20T11:14:25;100171.75;;;5.62;100.00
8160;BME280;27404;52.398;9.646;2023-12-20T11:17:13;100154.66;;;5.61;100.00
8160;BME280;27404;52.398;9.646;2023-12-20T11:22:23;100168.50;;;5.40;100.00
8160;BME280;27404;52.398;9.646;2023-12-20T11:24:50;100160.97;;;5.42;100.00
8160;BME280;27404;52.398;9.646;2023-12-20T11:27:15;100162.03;;;5.41;100.00
8160;BME280;27404;52.398;9.646;2023-12-20T11:29:41;100143.69;;;5.43;100.00
8160;BME280;27404;52.398;9.646;2023-12-20T11:34:55;100182.06;;;5.26;100.00
8160;BME280;27404;52.398;9.646;2023-12-20T11:37:21;100197.31;;;5.07;100.00
8160;BME280;27404;52.398;9.646;2023-12-20T11:40:00;100220.03;;;4.99;100.00
8160;BME280;27404;52.398;9.646;2023-12-20T11:42:26;100222.53;;;4.87;100.00
8160;BME280;27404;52.398;9.646;2023-12-20T11:44:51;100232.97;;;4.70;100.00
8160;BME280;27404;52.398;9.646;2023-12-20T11:47:17;100210.44;;;4.43;100.00
8160;BME280;27404;52.398;9.646;2023-12-20T11:49:47;100208.53;;;4.37;100.00
8160;BME280;27404;52.398;9.646;2023-12-20T11:52:12;100208.31;;;4.25;100.00
8160;BME280;27404;52.398;9.646;2023-12-20T11:54:38;100209.38;;;4.30;100.00
8160;BME280;27404;52.398;9.646;2023-12-20T11:57:04;100201.47;;;4.29;100.00
8160;BME280;27404;52.398;9.646;2023-12-20T11:59:30;100204.38;;;4.27;100.00
8160;BME280;27404;52.398;9.646;2023-12-20T12:01:56;100193.94;;;4.18;100.00
8160;BME280;27404;52.398;9.646;2023-12-20T12:04:28;100189.97;;;4.20;100.00
8160;BME280;27404;52.398;9.646;2023-12-20T12:06:54;100194.31;;;4.01;100.00
8160;BME280;27404;52.398;9.646;2023-12-20T12:09:19;100183.66;;;3.93;100.00
8160;BME280;27404;52.398;9.646;2023-12-20T12:11:45;100184.13;;;4.03;100.00
8160;BME280;27404;52.398;9.646;2023-12-20T12:14:11;100173.31;;;4.03;100.00
8160;BME280;27404;52.398;9.646;2023-12-20T12:16:36;100179.38;;;4.19;100.00
8160;BME280;27404;52.398;9.646;2023-12-20T12:19:02;100181.47;;;4.17;100.00
8160;BME280;27404;52.398;9.646;2023-12-20T12:21:27;100181.91;;;4.27;100.00
8160;BME280;27404;52.398;9.646;2023-12-20T12:23:53;100183.53;;;4.21;100.00
8160;BME280;27404;52.398;9.646;2023-12-20T12:26:18;100179.81;;;4.36;100.00
8160;BME280;27404;52.398;9.646;2023-12-20T12:28:44;100156.91;;;4.32;100.00
8160;BME280;27404;52.398;9.646;2023-12-20T12:31:15;100165.25;;;4.30;100.00
8160;BME280;27404;52.398;9.646;2023-12-20T12:33:41;100165.25;;;4.30;100.00
8160;BME280;27404;52.398;9.646;2023-12-20T12:36:07;100169.59;;;4.18;100.00
8160;BME280;27404;52.398;9.646;2023-12-20T12:38:33;100165.19;;;4.03;100.00
8160;BME280;27404;52.398;9.646;2023-12-20T12:41:00;100164.56;;;3.94;100.00
8160;BME280;27404;52.398;9.646;2023-12-20T12:43:25;100159.09;;;3.88;100.00
8160;BME280;27404;52.398;9.646;2023-12-20T12:45:51;100163.06;;;3.92;100.00
8160;BME280;27404;52.398;9.646;2023-12-20T12:48:16;100170.16;;;3.93;100.00
8160;BME280;27404;52.398;9.646;2023-12-20T12:50:42;100167.66;;;4.05;100.00
8160;BME280;27404;52.398;9.646;2023-12-20T12:53:08;100157.91;;;4.10;100.00
8160;BME280;27404;52.398;9.646;2023-12-20T12:55:34;100162.47;;;4.03;100.00
8160;BME280;27404;52.398;9.646;2023-12-20T12:58:00;100153.09;;;4.06;100.00
8160;BME280;27404;52.398;9.646;2023-12-20T13:00:26;100150.00;;;3.95;100.00
8160;BME280;27404;52.398;9.646;2023-12-20T13:02:51;100148.28;;;3.81;100.00
8160;BME280;27404;52.398;9.646;2023-12-20T13:05:17;100137.44;;;3.74;100.00